Arbalist — J8B3636 — position and weather

sailwx.info

Track history (hours):
 
Tides and Currents Weather Stations Pressure Air Temp Water Temp Dewpoint Dewpoint Depression Visibility Wind Speed Wind Dir Waves Ship Positions

Arbalist

Last reported at 2014-Oct-26 10:24 UTC. Time now 2014-Nov-01 04:31 UTC.
Position N 35°55' E 025°45'.

Length 115 m; draft 4.5 m.

Type: Cargo ship. MMSI: 37579300.

Date/timePositionNaut miles runAvg speedWind from/ knotsBaromVisibWave heightAir tempDewpointWater temp
2014-Oct-26 10:24N 35°55' E 025°45'9 9.3
2014-Oct-26 09:24N 36°01' E 025°36'8 9.5
2014-Oct-26 08:33N 36°06' E 025°29'9 9.4
2014-Oct-26 07:33N 36°14' E 025°22'9 9.1
2014-Oct-26 06:33N 36°22' E 025°18'9 9.3
2014-Oct-26 05:33N 36°32' E 025°17'9 8.5
2014-Oct-26 04:33N 36°33' E 025°06'9 8.8
2014-Oct-26 03:33N 36°34' E 024°55'9 8.8
2014-Oct-26 02:33N 36°34' E 024°45'81 8.1
2014-Oct-25 16:33N 37°39' E 023°43'9 9.5
2014-Oct-25 15:33N 37°48' E 023°37'8 8.4
2014-Oct-25 14:33N 37°56' E 023°34'0 0.1
2014-Oct-25 13:33N 37°56' E 023°34'0 0.0
2014-Oct-25 12:30N 37°56' E 023°34'0 0.0
2014-Oct-25 11:33N 37°56' E 023°34'0 0.0
2014-Oct-25 10:32N 37°56' E 023°34'0 0.0
2014-Oct-25 09:32N 37°56' E 023°34'0 0.0
2014-Oct-25 08:32N 37°56' E 023°34'0 0.0
2014-Oct-25 07:32N 37°56' E 023°34'0 0.1
2014-Oct-25 06:32N 37°56' E 023°34'0 0.0
2014-Oct-25 05:32N 37°56' E 023°34'0 0.1
2014-Oct-25 04:32N 37°56' E 023°34'0 0.0
2014-Oct-25 03:32N 37°56' E 023°34'0 0.1
2014-Oct-25 02:32N 37°56' E 023°34'0 0.1
2014-Oct-25 01:32N 37°56' E 023°34'0 0.1
2014-Oct-25 00:32N 37°56' E 023°34'0 0.0
2014-Oct-24 23:32N 37°56' E 023°34'0 0.0
2014-Oct-24 22:31N 37°56' E 023°34'0 0.0
2014-Oct-24 21:31N 37°56' E 023°34'0 0.0
2014-Oct-24 20:31N 37°56' E 023°34'0 0.0
2014-Oct-24 19:31N 37°56' E 023°34'0 0.0
2014-Oct-24 18:31N 37°56' E 023°34'0 0.0
2014-Oct-24 17:31N 37°56' E 023°34'0 0.0
2014-Oct-24 16:31N 37°56' E 023°34'0 0.0
2014-Oct-24 15:31N 37°56' E 023°34'0 0.0
2014-Oct-24 14:31N 37°56' E 023°34'0 0.0
2014-Oct-24 13:31N 37°56' E 023°34'0 0.0
2014-Oct-24 12:31N 37°56' E 023°34'0 0.1
2014-Oct-24 11:30N 37°56' E 023°34'0 0.0
2014-Oct-24 10:33N 37°56' E 023°34'5 4.6
2014-Oct-24 09:33N 37°52' E 023°37'9 9.3
2014-Oct-24 08:33N 37°44' E 023°43'  
Track history (hours):
 
Tides and Currents Weather Stations Pressure Air Temp Water Temp Dewpoint Dewpoint Depression Visibility Wind Speed Wind Dir Waves Ship Positions

Arbalist

Last reported at 2014-Oct-26 10:24 UTC. Time now 2014-Nov-01 04:31 UTC.
Position N 35°55' E 025°45'.

Length 115 m; draft 4.5 m.

Type: Cargo ship. MMSI: 37579300.

Date/timePositionNaut miles runAvg speedWind from/ knotsBaromVisibWave heightAir tempDewpointWater temp
2014-Oct-26 10:24N 35°55' E 025°45'9 9.3
2014-Oct-26 09:24N 36°01' E 025°36'8 9.5
2014-Oct-26 08:33N 36°06' E 025°29'9 9.4
2014-Oct-26 07:33N 36°14' E 025°22'9 9.1
2014-Oct-26 06:33N 36°22' E 025°18'9 9.3
2014-Oct-26 05:33N 36°32' E 025°17'9 8.5
2014-Oct-26 04:33N 36°33' E 025°06'9 8.8
2014-Oct-26 03:33N 36°34' E 024°55'9 8.8
2014-Oct-26 02:33N 36°34' E 024°45'81 8.1
2014-Oct-25 16:33N 37°39' E 023°43'9 9.5
2014-Oct-25 15:33N 37°48' E 023°37'8 8.4
2014-Oct-25 14:33N 37°56' E 023°34'0 0.1
2014-Oct-25 13:33N 37°56' E 023°34'0 0.0
2014-Oct-25 12:30N 37°56' E 023°34'0 0.0
2014-Oct-25 11:33N 37°56' E 023°34'0 0.0
2014-Oct-25 10:32N 37°56' E 023°34'0 0.0
2014-Oct-25 09:32N 37°56' E 023°34'0 0.0
2014-Oct-25 08:32N 37°56' E 023°34'0 0.0
2014-Oct-25 07:32N 37°56' E 023°34'0 0.1
2014-Oct-25 06:32N 37°56' E 023°34'0 0.0
2014-Oct-25 05:32N 37°56' E 023°34'0 0.1
2014-Oct-25 04:32N 37°56' E 023°34'0 0.0
2014-Oct-25 03:32N 37°56' E 023°34'0 0.1
2014-Oct-25 02:32N 37°56' E 023°34'0 0.1
2014-Oct-25 01:32N 37°56' E 023°34'0 0.1
2014-Oct-25 00:32N 37°56' E 023°34'0 0.0
2014-Oct-24 23:32N 37°56' E 023°34'0 0.0
2014-Oct-24 22:31N 37°56' E 023°34'0 0.0
2014-Oct-24 21:31N 37°56' E 023°34'0 0.0
2014-Oct-24 20:31N 37°56' E 023°34'0 0.0
2014-Oct-24 19:31N 37°56' E 023°34'0 0.0
2014-Oct-24 18:31N 37°56' E 023°34'0 0.0
2014-Oct-24 17:31N 37°56' E 023°34'0 0.0
2014-Oct-24 16:31N 37°56' E 023°34'0 0.0
2014-Oct-24 15:31N 37°56' E 023°34'0 0.0
2014-Oct-24 14:31N 37°56' E 023°34'0 0.0
2014-Oct-24 13:31N 37°56' E 023°34'0 0.0
2014-Oct-24 12:31N 37°56' E 023°34'0 0.1
2014-Oct-24 11:30N 37°56' E 023°34'0 0.0
2014-Oct-24 10:33N 37°56' E 023°34'5 4.6
2014-Oct-24 09:33N 37°52' E 023°37'9 9.3
2014-Oct-24 08:33N 37°44' E 023°43'  

Dump ship's entire track history